Pagrindinis puslapis
METAR-TAF:

METAR-TAF

Oro uostai :

Diepholz, Vokietija

platuma: 52-35N, ilguma: 008-21E, Aukštis: 39 m

Dabartinis oras

Ataskaita buvo paskelbta 1 valandą ir 6 minutes, ne 09:20 UTC
Vėjas 3 kt iš Vakarų
Temperatūra 14°C
Drėgmė 63%
Slėgis 1030 hPa
Matomumas 10 km arba daugiau
Mažai debesys ne aukštis 2500 ft
Su prošvaistėmis ne aukštis 30000 ft

METAR: ETND 200920Z 28003KT 9999 FEW025 BKN300 14/07 Q1030 BLU+

Laikas: 12:26 (10:26 UTC)

Prognozė

Ataskaita buvo paskelbta 20 valandos ir 56 minutes, ne 13:30 UTC
Prognozė galioja nuo 19 metu 11 UTC su 19 metu 20 UTC
Vėjas 7 kt iš Šiaurės Vakarų
Matomumas: 1330 m
Mažai debesys ne aukštis 4000 ft

TAF: ETND 191330Z 1911/1920 31007KT 9999 NSW FEW040 CANCEL 1330 BY ETGL

Orai ataskaitas ir orų prognozės (METAR, TAF).

turimą stotys yra geltonos ir raudonos taškus žemėlapyje.

Perkelti pele per norėdami pamatyti stoties vardą.

Tada spustelėkite, norėdami matyti oro stebėjimo ir prognozės.

Norėdami pakeisti žemėlapį: spustelėkite ant žalios mygtukų su juodo kryžiaus žemyn,; žalią mygtuką su brūkšneliu, jei norite nutolinti; arba žalių rodyklių gretimoms žemėlapius.


METAR-TAF: